Archival Weather

Snohomish County (Paine Fld)

Everett, Washington (KPAE)

Report from: Tuesday, November 14, 2023 9:53 PM PST
Current time: Friday, June 14, 2024 5:01 AM PDT

Current weather – Weather history – Daily summaries
Weather forecast

Temperature3.3°C (37.9°F)
Dew point1.7°C (35.1°F)
Winds Calm
Visibility10 mi. (16.1 km)
Clouds Sky clear
Altimeter29.99 in.Hg (1016 mB)
Relative humidity89 %
Density altitude-1,407 ft. (-429 m)
Sea-level pressure101.6 kPa (1016 mB, 30.00 in.Hg)
Max temp last 6 hours7.2°C (45.0°F)
Min temp last 6 hours2.2°C (36.0°F)
Remarks Fully automated report
Automated weather observing station with precipitation discriminator
Pressure rising, then falling
Flight conditions Visual Meteorological Conditions
Raw dataKPAE 150553Z AUTO 00000KT 10SM R16R/4000VP6000FT CLR 03/02 A2999 RMK AO2 SLP159 T00330017 10072 20022 50000
An error has occurred. This application may no longer respond until reloaded. Reload 🗙